EGLG weather

CLOSED Panshanger Aerodrome
Hertford, England, United Kingdom

Public forecast

Using degrees Celsius for public forecast. Weather courtesy of forecast.io.

METAR (pilot weather report)

Closest report is London Luton Airport, 8.9 nm (16.5 km) WNW. Retrieved 2019/03/22 05:50 UTC (10 minutes ago):

EGGW 220550Z AUTO 20007KT 9999 OVC012 09/06 Q1028

TAF (pilot weather forecast)

Closest forecast is London Luton Airport, 8.9 nm (16.5 km) WNW. Retrieved 2019/03/22 06:00 UTC (17 seconds ago):

TAF EGGW 220502Z 2206/2306 20003KT 9999 BKN014 PROB30 TEMPO 2206/2209 9000 BKN008 BECMG 2209/2212 BKN020 BECMG 2218/2221 26010KT BECMG 2300/2303 BKN014 PROB30 TEMPO 2301/2305 8000 -RADZ BKN008 BECMG 2303/2306 36010KT FEW016